createdAt,value
2022-12-23T00:00:40.708Z,69.30
2022-12-23T00:03:07.688Z,69.50
2022-12-23T00:05:39.956Z,69.65
2022-12-23T00:08:07.579Z,69.66
2022-12-23T00:10:37.915Z,69.74
2022-12-23T00:13:23.397Z,69.76
2022-12-23T00:15:50.172Z,70.01
2022-12-23T00:18:16.926Z,70.14
2022-12-23T00:20:43.649Z,70.15
2022-12-23T00:23:10.527Z,70.44
2022-12-23T00:25:42.467Z,70.40
2022-12-23T00:28:16.114Z,70.39
2022-12-23T00:30:54.948Z,70.56
2022-12-23T00:33:24.189Z,70.62
2022-12-23T00:35:52.084Z,70.77
2022-12-23T00:38:39.869Z,70.67
2022-12-23T00:41:29.265Z,70.73
2022-12-23T00:43:56.637Z,70.69
2022-12-23T00:46:24.972Z,70.86
2022-12-23T00:49:10.538Z,70.72
2022-12-23T00:51:37.450Z,70.65
2022-12-23T00:54:04.877Z,70.70
2022-12-23T00:56:32.433Z,71.25
2022-12-23T00:58:59.991Z,70.96
2022-12-23T01:01:46.406Z,70.86
2022-12-23T01:04:33.349Z,70.76
2022-12-23T01:07:00.242Z,70.74
2022-12-23T01:09:27.515Z,70.91
2022-12-23T01:11:54.548Z,70.83
2022-12-23T01:14:21.829Z,71.02
2022-12-23T01:16:48.811Z,71.03
2022-12-23T01:19:15.466Z,71.10
2022-12-23T01:21:42.347Z,71.16
2022-12-23T01:24:09.257Z,71.09
2022-12-23T01:26:36.122Z,71.23
2022-12-23T01:29:03.520Z,71.24
2022-12-23T01:31:30.315Z,71.53
2022-12-23T01:33:57.105Z,71.64
2022-12-23T01:36:24.071Z,71.67
2022-12-23T01:38:51.668Z,71.59
2022-12-23T01:41:46.805Z,71.72
2022-12-23T01:44:53.885Z,71.70
2022-12-23T01:47:20.524Z,71.83
2022-12-23T01:49:49.416Z,71.79
2022-12-23T01:52:16.599Z,72.02
2022-12-23T01:54:44.129Z,71.83
2022-12-23T01:57:11.259Z,72.12
2022-12-23T01:59:56.878Z,71.96
2022-12-23T02:02:42.542Z,72.36
2022-12-23T02:05:09.633Z,72.12
2022-12-23T02:07:55.444Z,72.28
2022-12-23T02:10:26.620Z,72.08
2022-12-23T02:13:14.037Z,72.40
2022-12-23T02:16:10.334Z,72.14
2022-12-23T02:19:01.582Z,72.43
2022-12-23T02:22:12.832Z,72.26
2022-12-23T02:25:03.417Z,72.29
2022-12-23T02:27:47.214Z,72.27
2022-12-23T02:30:57.070Z,72.47
2022-12-23T02:33:40.218Z,72.78
2022-12-23T02:36:07.062Z,72.50
2022-12-23T02:38:54.276Z,72.56
2022-12-23T02:41:30.470Z,72.46
2022-12-23T02:44:02.750Z,72.50
2022-12-23T02:46:37.045Z,72.85
2022-12-23T02:49:08.177Z,72.64
2022-12-23T02:51:40.529Z,72.40
2022-12-23T02:54:12.349Z,72.72
2022-12-23T02:56:46.225Z,72.78
2022-12-23T02:59:21.401Z,72.90
2022-12-23T03:01:49.703Z,72.58
2022-12-23T03:04:16.468Z,72.71
2022-12-23T03:06:50.040Z,72.70
2022-12-23T03:09:51.811Z,72.74
2022-12-23T03:12:35.072Z,72.66
2022-12-23T03:15:19.560Z,72.66
2022-12-23T03:18:04.323Z,72.65
2022-12-23T03:21:03.500Z,72.50
2022-12-23T03:23:32.912Z,72.80
2022-12-23T03:26:14.582Z,73.19
2022-12-23T03:28:45.278Z,73.21
2022-12-23T03:31:18.460Z,73.18
2022-12-23T03:33:48.746Z,72.95
2022-12-23T03:36:38.573Z,73.38
2022-12-23T03:39:09.937Z,73.30
2022-12-23T03:41:42.477Z,73.39
2022-12-23T03:44:13.988Z,73.24
2022-12-23T03:46:47.479Z,73.39
2022-12-23T03:49:20.593Z,73.17
2022-12-23T03:51:59.363Z,73.37
2022-12-23T03:54:32.105Z,73.27
2022-12-23T03:57:03.544Z,73.53
2022-12-23T03:59:44.116Z,73.18
2022-12-23T04:02:40.869Z,73.45
2022-12-23T04:05:37.929Z,73.31
2022-12-23T04:08:10.627Z,73.43
2022-12-23T04:10:37.747Z,73.64
2022-12-23T04:13:04.882Z,73.45
2022-12-23T04:15:31.960Z,73.48
2022-12-23T04:17:58.736Z,73.39
2022-12-23T04:20:26.132Z,73.36
2022-12-23T04:22:52.847Z,73.26
2022-12-23T04:25:19.471Z,73.58
2022-12-23T04:27:46.348Z,73.32
2022-12-23T04:30:16.539Z,73.42
2022-12-23T04:32:43.434Z,73.48
2022-12-23T04:35:11.720Z,73.43
2022-12-23T04:37:38.911Z,73.56
2022-12-23T04:40:06.898Z,73.63
2022-12-23T04:42:34.033Z,73.58
2022-12-23T04:45:00.728Z,73.48
2022-12-23T04:47:27.733Z,73.65
2022-12-23T04:49:54.468Z,73.60
2022-12-23T04:52:21.232Z,73.35
2022-12-23T04:54:47.924Z,73.46
2022-12-23T04:57:15.960Z,73.34
2022-12-23T04:59:42.620Z,73.43
2022-12-23T05:02:09.579Z,73.32
2022-12-23T05:04:36.466Z,73.42
2022-12-23T05:07:03.301Z,73.44
2022-12-23T05:09:29.889Z,73.35
2022-12-23T05:11:56.777Z,73.06
2022-12-23T05:14:23.391Z,73.15
2022-12-23T05:16:50.087Z,73.04
2022-12-23T05:19:17.209Z,73.22
2022-12-23T05:21:43.905Z,73.00
2022-12-23T05:24:10.722Z,72.95
2022-12-23T05:26:37.575Z,73.18
2022-12-23T05:29:04.700Z,73.30
2022-12-23T05:31:31.354Z,73.23
2022-12-23T05:34:05.734Z,73.07
2022-12-23T05:36:33.590Z,73.06
2022-12-23T05:39:00.370Z,72.81
2022-12-23T05:41:27.207Z,72.88
2022-12-23T05:43:53.884Z,73.14
2022-12-23T05:46:26.134Z,72.83
2022-12-23T05:48:53.487Z,72.99
2022-12-23T05:51:20.121Z,72.80
2022-12-23T05:53:46.901Z,73.13
2022-12-23T05:56:13.623Z,72.98
2022-12-23T05:58:40.243Z,73.11
2022-12-23T06:01:07.922Z,73.24
2022-12-23T06:03:34.893Z,73.34
2022-12-23T06:06:01.786Z,73.18
2022-12-23T06:08:28.775Z,73.72
2022-12-23T06:10:55.542Z,73.27
2022-12-23T06:13:22.112Z,73.44
2022-12-23T06:15:49.172Z,73.43
2022-12-23T06:18:15.807Z,73.45
2022-12-23T06:20:46.703Z,73.71
2022-12-23T06:23:13.857Z,73.40
2022-12-23T06:25:40.516Z,73.83
2022-12-23T06:28:08.103Z,73.56
2022-12-23T06:30:35.336Z,74.00
2022-12-23T06:33:01.962Z,73.64
2022-12-23T06:35:28.754Z,73.82
2022-12-23T06:37:55.607Z,73.72
2022-12-23T06:40:22.421Z,73.74
2022-12-23T06:42:48.999Z,73.98
2022-12-23T06:45:16.136Z,73.78
2022-12-23T06:47:42.746Z,73.76
2022-12-23T06:50:09.726Z,73.75
2022-12-23T06:52:36.837Z,73.84
2022-12-23T06:55:03.591Z,73.81
2022-12-23T06:57:30.151Z,74.01
2022-12-23T06:59:57.276Z,73.74
2022-12-23T07:02:23.988Z,73.69
2022-12-23T07:04:50.647Z,73.91
2022-12-23T07:07:17.536Z,74.06
2022-12-23T07:09:44.417Z,73.93
2022-12-23T07:12:11.029Z,74.10
2022-12-23T07:14:38.061Z,73.89
2022-12-23T07:17:04.762Z,74.16
2022-12-23T07:19:31.359Z,74.02
2022-12-23T07:21:58.516Z,74.05
2022-12-23T07:24:25.247Z,74.29
2022-12-23T07:26:52.368Z,73.96
2022-12-23T07:29:19.235Z,74.54
2022-12-23T07:31:46.092Z,74.39
2022-12-23T07:34:12.711Z,74.48
2022-12-23T07:36:40.027Z,74.48
2022-12-23T07:39:06.789Z,74.42
2022-12-23T07:41:38.448Z,74.58
2022-12-23T07:44:05.396Z,74.77
2022-12-23T07:46:32.073Z,74.67
2022-12-23T07:48:58.756Z,74.84
2022-12-23T07:51:25.737Z,74.95
2022-12-23T07:53:52.494Z,75.07
2022-12-23T07:56:19.341Z,74.65
2022-12-23T07:58:50.807Z,74.94
2022-12-23T08:01:18.646Z,75.02
2022-12-23T08:03:45.766Z,75.44
2022-12-23T08:06:14.087Z,75.17
2022-12-23T08:08:43.231Z,75.41
2022-12-23T08:11:11.839Z,75.39
2022-12-23T08:13:40.986Z,75.57
2022-12-23T08:16:08.717Z,75.33
2022-12-23T08:18:38.052Z,75.46
2022-12-23T08:21:11.079Z,75.47
2022-12-23T08:23:37.743Z,75.57
2022-12-23T08:26:13.703Z,75.50
2022-12-23T08:28:41.660Z,75.55
2022-12-23T08:31:15.827Z,75.69
2022-12-23T08:33:45.037Z,75.67
2022-12-23T08:36:22.502Z,75.75
2022-12-23T08:38:56.105Z,75.52
2022-12-23T08:41:26.029Z,75.47
2022-12-23T08:43:53.715Z,75.72
2022-12-23T08:46:20.639Z,75.55
2022-12-23T08:48:49.634Z,75.84
2022-12-23T08:51:18.215Z,75.77
2022-12-23T08:53:45.250Z,75.44
2022-12-23T08:56:15.903Z,75.57
2022-12-23T08:58:48.231Z,75.54
2022-12-23T09:01:17.308Z,75.60
2022-12-23T09:03:45.070Z,75.52
2022-12-23T09:06:26.555Z,75.88
2022-12-23T09:08:55.908Z,75.59
2022-12-23T09:11:25.357Z,75.72
2022-12-23T09:13:52.033Z,75.88
2022-12-23T09:16:19.124Z,75.93
2022-12-23T09:18:46.064Z,76.16
2022-12-23T09:21:15.804Z,76.02
2022-12-23T09:23:43.183Z,76.05
2022-12-23T09:26:11.183Z,75.79
2022-12-23T09:28:39.780Z,75.92
2022-12-23T09:31:11.965Z,75.84
2022-12-23T09:33:39.432Z,75.88
2022-12-23T09:36:06.841Z,75.82
2022-12-23T09:38:34.307Z,75.65
2022-12-23T09:41:21.267Z,75.83
2022-12-23T09:44:19.075Z,75.81
2022-12-23T09:46:51.625Z,75.92
2022-12-23T09:49:19.297Z,75.94
2022-12-23T09:51:48.545Z,75.83
2022-12-23T09:54:23.680Z,75.77
2022-12-23T09:57:00.545Z,75.73
2022-12-23T09:59:53.715Z,75.88
2022-12-23T10:02:45.246Z,75.67
2022-12-23T10:05:21.909Z,75.66
2022-12-23T10:07:55.994Z,75.62
2022-12-23T10:10:43.371Z,75.43
2022-12-23T10:13:30.528Z,75.23
2022-12-23T10:16:05.664Z,75.19
2022-12-23T10:18:56.376Z,75.26
2022-12-23T10:21:46.919Z,75.15
2022-12-23T10:24:24.219Z,75.23
2022-12-23T10:26:54.181Z,75.26
2022-12-23T10:29:23.972Z,75.22
2022-12-23T10:31:57.963Z,75.44
2022-12-23T10:34:47.398Z,75.25
2022-12-23T10:37:20.923Z,75.36
2022-12-23T10:39:47.612Z,75.33
2022-12-23T10:42:28.926Z,75.44
2022-12-23T10:45:28.859Z,75.52
2022-12-23T10:48:17.041Z,75.54
2022-12-23T10:50:49.736Z,75.62
2022-12-23T10:53:41.411Z,75.48
2022-12-23T10:56:08.665Z,75.41
2022-12-23T10:58:40.968Z,75.78
2022-12-23T11:01:16.172Z,75.66
2022-12-23T11:04:15.422Z,75.70
2022-12-23T11:06:46.496Z,75.60
2022-12-23T11:10:02.460Z,75.74
2022-12-23T11:12:44.354Z,75.62
2022-12-23T11:15:38.750Z,75.52
2022-12-23T11:18:07.433Z,75.48
2022-12-23T11:20:36.187Z,75.67
2022-12-23T11:23:04.560Z,75.47
2022-12-23T11:25:41.271Z,75.76
2022-12-23T11:28:12.247Z,75.84
2022-12-23T11:30:56.753Z,75.82
2022-12-23T11:33:30.299Z,75.86
2022-12-23T11:36:20.079Z,75.91
2022-12-23T11:38:52.592Z,75.80
2022-12-23T11:41:26.286Z,75.76
2022-12-23T11:44:10.152Z,75.87
2022-12-23T11:46:37.780Z,75.80
2022-12-23T11:49:12.849Z,75.63
2022-12-23T11:51:39.929Z,75.63
2022-12-23T11:54:06.577Z,75.75
2022-12-23T11:56:42.012Z,75.76
2022-12-23T11:59:27.108Z,75.67
2022-12-23T12:01:56.948Z,75.79
2022-12-23T12:04:25.749Z,75.76
2022-12-23T12:06:56.693Z,75.99
2022-12-23T12:09:25.641Z,75.93
2022-12-23T12:11:58.354Z,75.71
2022-12-23T12:14:34.220Z,75.84
2022-12-23T12:17:05.811Z,75.81
2022-12-23T12:19:40.742Z,75.84
2022-12-23T12:22:14.760Z,76.07
2022-12-23T12:24:56.334Z,76.05
2022-12-23T12:27:34.608Z,75.64
2022-12-23T12:30:08.867Z,75.64
2022-12-23T12:32:47.484Z,75.43
2022-12-23T12:35:23.341Z,75.46
2022-12-23T12:37:59.485Z,75.29
2022-12-23T12:40:35.495Z,75.12
2022-12-23T12:43:16.247Z,75.36
2022-12-23T12:46:16.540Z,75.09
2022-12-23T12:49:11.312Z,75.10
2022-12-23T12:51:41.783Z,75.04
2022-12-23T12:54:17.907Z,75.20
2022-12-23T12:56:48.200Z,75.37
2022-12-23T12:59:20.472Z,75.36
2022-12-23T13:02:01.010Z,75.75
2022-12-23T13:04:39.607Z,75.66
2022-12-23T13:07:15.943Z,75.48
2022-12-23T13:09:51.443Z,75.41
2022-12-23T13:12:52.713Z,75.37
2022-12-23T13:15:30.352Z,75.26
2022-12-23T13:18:03.415Z,75.15
2022-12-23T13:20:42.859Z,75.05
2022-12-23T13:23:44.438Z,75.09
2022-12-23T13:26:25.563Z,74.86
2022-12-23T13:29:17.715Z,74.76
2022-12-23T13:32:06.033Z,74.95
2022-12-23T13:34:52.341Z,74.83
2022-12-23T13:37:44.045Z,74.84
2022-12-23T13:40:29.725Z,74.84
2022-12-23T13:43:04.489Z,74.89
2022-12-23T13:45:38.790Z,74.96
2022-12-23T13:48:38.735Z,75.15
2022-12-23T13:51:13.639Z,75.10
2022-12-23T13:53:47.727Z,75.31
2022-12-23T13:56:24.178Z,75.16
2022-12-23T13:58:51.849Z,75.08
2022-12-23T14:01:18.654Z,75.20
2022-12-23T14:03:48.827Z,74.97
2022-12-23T14:06:24.884Z,75.02
2022-12-23T14:08:54.912Z,75.02
2022-12-23T14:11:24.391Z,75.02
2022-12-23T14:13:51.004Z,74.79
2022-12-23T14:17:00.833Z,74.76
2022-12-23T14:19:52.948Z,74.67
2022-12-23T14:22:37.705Z,74.56
2022-12-23T14:25:38.712Z,74.64
2022-12-23T14:28:08.596Z,74.43
2022-12-23T14:30:42.845Z,74.49
2022-12-23T14:33:18.723Z,74.57
2022-12-23T14:35:45.507Z,74.66
2022-12-23T14:38:14.804Z,74.91
2022-12-23T14:41:19.214Z,75.11
2022-12-23T14:43:45.775Z,75.37
2022-12-23T14:46:35.445Z,75.36
2022-12-23T14:49:37.024Z,75.58
2022-12-23T14:51:53.164Z,75.66
2022-12-23T14:54:31.486Z,75.67
2022-12-23T14:57:08.155Z,75.70
2022-12-23T14:59:58.146Z,75.60
2022-12-23T15:02:33.886Z,75.58
2022-12-23T15:05:01.556Z,75.34
2022-12-23T15:07:35.875Z,75.42
2022-12-23T15:10:06.221Z,75.38
2022-12-23T15:12:37.893Z,75.38
2022-12-23T15:15:07.484Z,75.17
2022-12-23T15:17:36.629Z,75.31
2022-12-23T15:20:15.604Z,75.32
2022-12-23T15:22:44.884Z,75.42
2022-12-23T15:25:25.667Z,75.32
2022-12-23T15:28:01.309Z,75.54
2022-12-23T15:30:31.291Z,75.46
2022-12-23T15:33:16.011Z,75.41
2022-12-23T15:35:52.356Z,75.36
2022-12-23T15:38:21.602Z,75.50
2022-12-23T15:41:03.732Z,75.22
2022-12-23T15:43:31.419Z,75.53
2022-12-23T15:46:32.879Z,75.36
2022-12-23T15:49:00.511Z,75.47
2022-12-23T15:52:05.711Z,75.58
2022-12-23T15:55:04.194Z,75.42
2022-12-23T15:57:31.624Z,75.57
2022-12-23T15:59:59.358Z,75.59
2022-12-23T16:02:59.269Z,75.69
2022-12-23T16:05:31.044Z,75.59
2022-12-23T16:08:11.941Z,75.51
2022-12-23T16:10:40.742Z,75.53
2022-12-23T16:13:20.157Z,75.66
2022-12-23T16:15:47.461Z,75.95
2022-12-23T16:18:22.041Z,76.23
2022-12-23T16:20:51.568Z,76.21
2022-12-23T16:23:18.578Z,76.41
2022-12-23T16:25:51.150Z,76.32
2022-12-23T16:28:32.476Z,76.51
2022-12-23T16:30:59.224Z,76.78
2022-12-23T16:33:50.693Z,76.99
2022-12-23T16:36:26.206Z,77.03
2022-12-23T16:39:34.282Z,76.76
2022-12-23T16:42:00.902Z,76.94
2022-12-23T16:44:27.727Z,76.81
2022-12-23T16:46:54.574Z,76.45
2022-12-23T16:49:27.969Z,76.46
2022-12-23T16:51:56.678Z,76.47
2022-12-23T16:54:23.506Z,76.35
2022-12-23T16:56:50.258Z,76.39
2022-12-23T16:59:17.646Z,76.08
2022-12-23T17:01:49.082Z,76.37
2022-12-23T17:04:15.993Z,75.92
2022-12-23T17:06:43.376Z,76.32
2022-12-23T17:09:10.691Z,76.18
2022-12-23T17:11:41.711Z,76.55
2022-12-23T17:14:16.101Z,76.58
2022-12-23T17:16:43.275Z,76.74
2022-12-23T17:19:10.050Z,76.76
2022-12-23T17:21:38.067Z,76.74
2022-12-23T17:24:09.449Z,76.79
2022-12-23T17:26:36.274Z,76.45
2022-12-23T17:29:05.005Z,76.15
2022-12-23T17:31:33.604Z,76.23
2022-12-23T17:34:00.983Z,75.86
2022-12-23T17:36:28.247Z,75.98
2022-12-23T17:38:55.221Z,76.03
2022-12-23T17:41:31.197Z,76.08
2022-12-23T17:43:58.419Z,75.90
2022-12-23T17:46:25.858Z,75.74
2022-12-23T17:48:53.800Z,75.95
2022-12-23T17:51:22.750Z,75.72
2022-12-23T17:53:57.066Z,76.22
2022-12-23T17:56:26.963Z,76.01
2022-12-23T17:58:53.880Z,76.13
2022-12-23T18:01:29.953Z,76.24
2022-12-23T18:03:58.247Z,76.21
2022-12-23T18:06:27.683Z,76.25
2022-12-23T18:08:54.666Z,76.02
2022-12-23T18:11:41.975Z,75.93
2022-12-23T18:14:17.029Z,76.07
2022-12-23T18:16:43.815Z,75.90
2022-12-23T18:19:18.988Z,76.20
2022-12-23T18:21:46.388Z,76.23
2022-12-23T18:24:13.182Z,76.09
2022-12-23T18:26:40.264Z,76.28
2022-12-23T18:29:06.921Z,76.27
2022-12-23T18:31:33.657Z,76.52
2022-12-23T18:34:00.524Z,76.73
2022-12-23T18:36:31.218Z,77.07
2022-12-23T18:38:58.025Z,77.32
2022-12-23T18:41:25.782Z,77.14
2022-12-23T18:43:53.397Z,77.04
2022-12-23T18:46:20.425Z,77.38
2022-12-23T18:48:47.641Z,77.37
2022-12-23T18:51:18.881Z,77.20
2022-12-23T18:53:47.294Z,77.02
2022-12-23T18:56:15.553Z,77.01
2022-12-23T18:58:43.160Z,76.85
2022-12-23T19:01:17.797Z,77.01
2022-12-23T19:03:44.851Z,76.79
2022-12-23T19:06:14.264Z,76.97
2022-12-23T19:08:42.162Z,76.96
2022-12-23T19:11:14.229Z,77.10
2022-12-23T19:13:41.072Z,76.84
2022-12-23T19:16:08.381Z,76.90
2022-12-23T19:18:35.077Z,76.87
2022-12-23T19:21:04.482Z,76.86
2022-12-23T19:23:31.373Z,76.60
2022-12-23T19:25:57.995Z,76.73
2022-12-23T19:28:24.781Z,76.76
2022-12-23T19:30:51.800Z,76.69
2022-12-23T19:33:18.653Z,76.72
2022-12-23T19:35:45.356Z,76.58
2022-12-23T19:38:12.705Z,76.61
2022-12-23T19:40:39.796Z,76.68
2022-12-23T19:43:06.644Z,76.52
2022-12-23T19:45:33.838Z,76.43
2022-12-23T19:48:00.485Z,76.55
2022-12-23T19:50:27.298Z,76.55
2022-12-23T19:52:56.579Z,76.95
2022-12-23T19:55:23.364Z,76.75
2022-12-23T19:57:50.075Z,76.58
2022-12-23T20:00:17.033Z,76.81
2022-12-23T20:02:43.889Z,76.56
2022-12-23T20:05:10.553Z,76.68
2022-12-23T20:07:38.497Z,76.62
2022-12-23T20:10:06.258Z,76.69
2022-12-23T20:12:33.113Z,76.68
2022-12-23T20:15:00.257Z,76.89
2022-12-23T20:17:27.026Z,76.85
2022-12-23T20:19:53.720Z,76.83
2022-12-23T20:22:20.478Z,77.15
2022-12-23T20:24:47.117Z,77.12
2022-12-23T20:27:15.956Z,77.10
2022-12-23T20:29:43.149Z,77.54
2022-12-23T20:32:10.342Z,77.66
2022-12-23T20:34:40.034Z,77.59
2022-12-23T20:37:07.825Z,77.75
2022-12-23T20:39:35.474Z,77.84
2022-12-23T20:42:03.638Z,78.02
2022-12-23T20:44:35.583Z,77.99
2022-12-23T20:47:06.778Z,77.87
2022-12-23T20:49:33.894Z,77.74
2022-12-23T20:52:00.763Z,77.88
2022-12-23T20:54:32.544Z,78.05
2022-12-23T20:57:00.556Z,77.84
2022-12-23T20:59:27.177Z,77.96
2022-12-23T21:01:53.991Z,77.85
2022-12-23T21:04:21.074Z,78.02
2022-12-23T21:06:47.695Z,78.34
2022-12-23T21:09:15.473Z,78.26
2022-12-23T21:11:44.656Z,78.17
2022-12-23T21:14:11.882Z,78.16
2022-12-23T21:16:39.578Z,78.21
2022-12-23T21:19:08.672Z,78.21
2022-12-23T21:21:35.610Z,78.26
2022-12-23T21:24:04.783Z,77.95
2022-12-23T21:26:33.190Z,78.45
2022-12-23T21:29:02.034Z,78.13
2022-12-23T21:31:30.943Z,78.52
2022-12-23T21:33:58.971Z,78.41
2022-12-23T21:36:29.416Z,78.55
2022-12-23T21:38:56.820Z,78.27
2022-12-23T21:41:29.900Z,78.36
2022-12-23T21:43:57.929Z,78.37
2022-12-23T21:46:25.887Z,78.42
2022-12-23T21:48:53.356Z,78.51
2022-12-23T21:51:39.048Z,78.40
2022-12-23T21:54:07.039Z,78.42
2022-12-23T21:56:33.935Z,78.42
2022-12-23T21:59:03.719Z,78.29
2022-12-23T22:01:31.384Z,78.48
2022-12-23T22:03:58.614Z,78.54
2022-12-23T22:06:28.282Z,78.46
2022-12-23T22:08:56.025Z,78.69
2022-12-23T22:11:26.363Z,78.76
2022-12-23T22:13:53.327Z,78.74
2022-12-23T22:16:22.624Z,78.47
2022-12-23T22:18:51.187Z,78.81
2022-12-23T22:21:23.879Z,78.83
2022-12-23T22:23:52.731Z,78.82
2022-12-23T22:26:25.152Z,78.84
2022-12-23T22:28:54.829Z,78.90
2022-12-23T22:31:38.561Z,78.62
2022-12-23T22:34:06.669Z,78.68
2022-12-23T22:36:33.968Z,78.86
2022-12-23T22:39:01.897Z,78.55
2022-12-23T22:41:30.000Z,78.95
2022-12-23T22:43:58.271Z,79.01
2022-12-23T22:46:26.414Z,78.90
2022-12-23T22:48:54.382Z,78.85
2022-12-23T22:51:23.830Z,78.83
2022-12-23T22:53:50.528Z,78.73
2022-12-23T22:56:18.541Z,78.69
2022-12-23T22:58:45.495Z,78.78
2022-12-23T23:01:21.714Z,78.77
2022-12-23T23:03:51.224Z,78.86
2022-12-23T23:06:18.697Z,78.91
2022-12-23T23:08:45.642Z,78.82
2022-12-23T23:11:12.326Z,78.82
2022-12-23T23:13:39.044Z,78.76
2022-12-23T23:16:06.419Z,79.03
2022-12-23T23:18:33.700Z,79.03
2022-12-23T23:21:00.839Z,78.83
2022-12-23T23:23:27.713Z,78.97
2022-12-23T23:25:54.278Z,78.88
2022-12-23T23:28:21.053Z,78.75
2022-12-23T23:30:48.151Z,79.13
2022-12-23T23:33:14.849Z,78.83
2022-12-23T23:35:41.506Z,79.02
2022-12-23T23:38:09.230Z,78.85
2022-12-23T23:40:38.972Z,78.95
2022-12-23T23:43:05.657Z,79.17
2022-12-23T23:45:32.624Z,79.11
2022-12-23T23:47:59.296Z,79.16
2022-12-23T23:50:25.909Z,79.33
2022-12-23T23:52:52.873Z,79.11
2022-12-23T23:55:19.690Z,79.15
2022-12-23T23:57:46.357Z,79.16
